Aérodrome :
LOGIN :

S'inscrire | Disclaimer

   EN    FR    IT 

 










Légende :    VFR   VFR Marginal   IFR   IFR Intensif   IFR Très Intensif
Visi : 
Plafond : 
>= 8 km
>= 3000ft
5 à 8 km
1000 à 3000 ft
1500m à 5 km
500 à 1000 ft
800 à 1500m
200 à 500 ft
< 800m
< 200 ft
Symboles :   Orages  Brouillard  Fortes neiges  Fortes précipitations  Vent > 20 kt
SIGMETs :   Divers  Orages  Givrage  Turbulence  Onde Orograph.  Cendres Volcan.






- Altitude de l'aérodrome : 296 ft
- Code IATA : GKE


ETNG - Geilenkirchen

DERNIER METAR :
  • 241250Z AUTO 22008KT 170V260 9999 SCT020/// BKN047/// BKN230/// 06/02 Q1000

METARs EXPIRÉS :
  • 241232Z AUTO 23012G28KT 170V280 4300 FEW017/// BKN021/// OVC027/// 05/01 Q1000
  • 241150Z AUTO 23009G19KT 160V270 9999 SCT027/// OVC041/// 06/00 Q1000
  • 241050Z AUTO 21009KT 160V260 9999 FEW022/// BKN025/// OVC029/// 06/M00 Q0999
  • 240950Z AUTO 23008KT 160V290 9999 FEW016/// BKN044/// 06/02 Q0999 TEMPO -SHRA
  • 240904Z AUTO 23007KT 180V300 9999 SCT013/// BKN019/// OVC041/// 04/02 Q0998 TEMPO -SHRA
  • 240850Z AUTO 23007KT 180V260 9999 BKN013/// BKN029/// BKN036/// 04/02 Q0998 TEMPO -SHRA
  • 240834Z AUTO 23009G19KT 200V270 9999 FEW012/// BKN014/// BKN028/// 04/02 Q0998 TEMPO -SHRA

Prévision TAF périmée.



MET'MAP, la Météo Aéronautique d'un coup d'oeil ! - Copyright ORBIFLY Décembre 2007 - Disclaimer

ORBIFLY MET'MAP TEAM :

Programmation & Développement : Alexandra Zaïnal
Sur une idée originale de : Baudouin d'Aumeries
Soutien technique & logistique : Manuel Goepfert
Assistance : Marc-Olivier Méhu




SOURCES & CREDITS :

   NOAA